Time;durP1;ratioP1;P1;durP2;ratioP2;P2;SDS_P1;SDS_P2;PMS_P1;PMS_P2;Temp;Humidity;BMP_temperature;BMP_pressure;BME280_temperature;BME280_humidity;BME280_pressure;Samples;Min_cycle;Max_cycle;Signal;HPM_P1;HPM_P2
2022/09/04 00:01:01;;;;;;;;;;;17.50;75.80;;;;;;3058029;19;19922;-67
2022/09/04 00:02:11;;;;;;;;;;;17.50;76.00;;;;;;3058332;19;19959;-67
2022/09/04 00:03:18;;;;;;;;;;;17.60;75.60;;;;;;3058121;19;20337;-67
2022/09/04 00:04:29;;;;;;;;;;;17.50;75.40;;;;;;3058364;19;20024;-67
2022/09/04 00:05:31;;;;;;;;;;;17.50;75.70;;;;;;3058036;19;19919;-67
2022/09/04 00:06:39;;;;;;;;;;;17.60;75.80;;;;;;3058186;19;19936;-67
2022/09/04 00:07:47;;;;;;;;;;;17.50;75.90;;;;;;3058226;19;19923;-67
2022/09/04 00:09:01;;;;;;;;;;;17.50;75.90;;;;;;3058335;19;19925;-68
2022/09/04 00:10:10;;;;;;;;;;;17.50;76.00;;;;;;3057985;19;20266;-68
2022/09/04 00:11:22;;;;;;;;;;;17.40;76.00;;;;;;3058298;19;19919;-68
2022/09/04 00:12:26;;;;;;;;;;;17.50;76.10;;;;;;3058175;19;19918;-68
2022/09/04 00:13:33;;;;;;;;;;;17.50;76.10;;;;;;3058189;19;19982;-68
2022/09/04 00:14:38;;;;;;;;;;;17.40;76.30;;;;;;3058294;19;20345;-68
2022/09/04 00:15:45;;;;;;;;;;;17.30;76.20;;;;;;3060967;19;19913;-69
2022/09/04 00:16:49;;;;;;;;;;;17.40;76.40;;;;;;3059651;19;19918;-68
2022/09/04 00:17:56;;;;;;;;;;;17.30;76.50;;;;;;3060949;19;19922;-68
2022/09/04 00:19:01;;;;;;;;;;;17.30;76.40;;;;;;3061264;19;19915;-68
2022/09/04 00:20:07;;;;;;;;;;;17.30;76.70;;;;;;3060984;19;19911;-68
2022/09/04 00:21:13;;;;;;;;;;;17.30;76.70;;;;;;3061138;19;19937;-68
2022/09/04 00:22:26;;;;;;;;;;;17.40;76.80;;;;;;3060739;19;19919;-68
2022/09/04 00:23:31;;;;;;;;;;;17.30;76.90;;;;;;3061278;19;19927;-68
2022/09/04 00:24:38;;;;;;;;;;;17.20;76.90;;;;;;3060795;19;19914;-68
2022/09/04 00:25:43;;;;;;;;;;;17.10;76.90;;;;;;3061212;19;19918;-69
2022/09/04 00:26:54;;;;;;;;;;;17.20;77.10;;;;;;3060792;19;20288;-68
2022/09/04 00:28:00;;;;;;;;;;;17.00;77.10;;;;;;3061107;19;19918;-69
2022/09/04 00:29:06;;;;;;;;;;;17.00;77.30;;;;;;3061098;19;20375;-70
2022/09/04 00:30:10;;;;;;;;;;;17.20;77.40;;;;;;3061026;19;19918;-69
2022/09/04 00:31:18;;;;;;;;;;;17.10;77.40;;;;;;3060900;19;20282;-69
2022/09/04 00:32:24;;;;;;;;;;;17.10;78.20;;;;;;3060779;19;20341;-69
2022/09/04 00:33:31;;;;;;;;;;;17.20;77.60;;;;;;3061060;19;19944;-69
2022/09/04 00:34:40;;;;;;;;;;;17.20;77.70;;;;;;3060695;19;19923;-69
2022/09/04 00:35:47;;;;;;;;;;;17.20;77.40;;;;;;3060843;19;19918;-69
2022/09/04 00:36:51;;;;;;;;;;;17.20;77.40;;;;;;3059824;19;19919;-68
2022/09/04 00:37:57;;;;;;;;;;;17.20;77.60;;;;;;3059984;19;19915;-69
2022/09/04 00:39:02;;;;;;;;;;;17.10;78.00;;;;;;3060566;19;20274;-69
2022/09/04 00:40:07;;;;;;;;;;;17.10;78.00;;;;;;3060889;19;19911;-69
2022/09/04 00:41:13;;;;;;;;;;;17.10;77.80;;;;;;3060473;19;19923;-69
2022/09/04 00:42:26;;;;;;;;;;;17.10;78.00;;;;;;3060888;19;20283;-68
2022/09/04 00:43:48;;;;;;;;;;;17.80;78.40;;;;;;3060816;19;20340;-70
2022/09/04 00:44:56;;;;;;;;;;;17.10;78.20;;;;;;3060618;19;19943;-70
2022/09/04 00:46:07;;;;;;;;;;;17.10;78.20;;;;;;3061064;19;19921;-69
2022/09/04 00:47:22;;;;;;;;;;;17.10;77.10;;;;;;3060497;19;19925;-68
2022/09/04 00:48:36;;;;;;;;;;;17.10;78.40;;;;;;3060667;19;20305;-68
2022/09/04 00:49:45;;;;;;;;;;;17.00;78.20;;;;;;3060632;19;20320;-68
2022/09/04 00:51:01;;;;;;;;;;;17.00;77.10;;;;;;3060669;19;19915;-68
2022/09/04 00:52:10;;;;;;;;;;;17.10;78.60;;;;;;3060609;19;19923;-68
2022/09/04 00:53:28;;;;;;;;;;;16.80;78.60;;;;;;3060495;19;19918;-69
2022/09/04 00:54:49;;;;;;;;;;;16.90;79.00;;;;;;3060221;19;19918;-69
2022/09/04 00:55:55;;;;;;;;;;;17.10;78.10;;;;;;3060355;19;19918;-68
2022/09/04 00:57:08;;;;;;;;;;;16.80;79.10;;;;;;3059767;19;19915;-68
2022/09/04 00:58:23;;;;;;;;;;;16.90;78.30;;;;;;3060725;19;19922;-69
2022/09/04 00:59:35;;;;;;;;;;;16.70;79.50;;;;;;3060332;19;19937;-69
2022/09/04 01:00:37;;;;;;;;;;;16.80;80.00;;;;;;3060627;19;19932;-69
2022/09/04 01:01:41;;;;;;;;;;;16.10;79.30;;;;;;3059371;19;20075;-70
2022/09/04 01:02:50;;;;;;;;;;;16.70;79.50;;;;;;3059878;19;19915;-69
2022/09/04 01:04:02;;;;;;;;;;;16.80;79.70;;;;;;3060550;19;19911;-69
2022/09/04 01:05:08;;;;;;;;;;;16.70;78.80;;;;;;3060698;19;19926;-69
2022/09/04 01:06:23;;;;;;;;;;;16.60;79.80;;;;;;3060315;19;19919;-70
2022/09/04 01:07:37;;;;;;;;;;;16.80;79.00;;;;;;3060539;19;19918;-69
2022/09/04 01:08:48;;;;;;;;;;;16.70;79.30;;;;;;3060776;19;19914;-69
2022/09/04 01:10:03;;;;;;;;;;;16.60;80.30;;;;;;3060465;19;19918;-68
2022/09/04 01:11:08;;;;;;;;;;;16.70;81.00;;;;;;3060426;19;20265;-69
2022/09/04 01:12:19;;;;;;;;;;;16.70;81.10;;;;;;3060235;19;20362;-69
2022/09/04 01:13:32;;;;;;;;;;;16.60;80.80;;;;;;3060427;19;20253;-69
2022/09/04 01:14:40;;;;;;;;;;;16.60;80.70;;;;;;3060149;19;19915;-68
2022/09/04 01:15:44;;;;;;;;;;;16.60;80.90;;;;;;3059428;19;20355;-68
2022/09/04 01:16:49;;;;;;;;;;;16.60;81.10;;;;;;3058543;19;19965;-69
2022/09/04 01:17:59;;;;;;;;;;;16.40;81.10;;;;;;3060426;19;19928;-69
2022/09/04 01:19:06;;;;;;;;;;;16.60;80.30;;;;;;3060512;19;19919;-68
2022/09/04 01:20:13;;;;;;;;;;;16.50;81.40;;;;;;3060182;19;19918;-68
2022/09/04 01:21:32;;;;;;;;;;;16.40;81.50;;;;;;3060184;19;19948;-68
2022/09/04 01:22:47;;;;;;;;;;;16.60;80.80;;;;;;3060202;19;19986;-69
2022/09/04 01:24:08;;;;;;;;;;;16.40;80.80;;;;;;3060231;19;20328;-69
2022/09/04 01:25:19;;;;;;;;;;;16.50;81.00;;;;;;3060029;19;19911;-68
2022/09/04 01:26:29;;;;;;;;;;;16.40;81.90;;;;;;3058342;19;19919;-68
2022/09/04 01:27:35;;;;;;;;;;;16.40;82.70;;;;;;3060053;19;20322;-68
2022/09/04 01:28:45;;;;;;;;;;;16.40;82.80;;;;;;3059990;19;20349;-68
2022/09/04 01:29:51;;;;;;;;;;;16.30;82.80;;;;;;3060695;19;19940;-68
2022/09/04 01:30:58;;;;;;;;;;;16.30;83.10;;;;;;3059858;19;19914;-69
2022/09/04 01:32:04;;;;;;;;;;;16.30;83.30;;;;;;3060385;19;19918;-69
2022/09/04 01:33:10;;;;;;;;;;;16.30;83.20;;;;;;3060098;19;19915;-69
2022/09/04 01:34:34;;;;;;;;;;;16.20;83.20;;;;;;3060358;19;19918;-68
2022/09/04 01:35:43;;;;;;;;;;;16.30;82.10;;;;;;3059924;19;20269;-68
2022/09/04 01:36:50;;;;;;;;;;;16.30;83.50;;;;;;3059093;19;19928;-68
2022/09/04 01:37:57;;;;;;;;;;;16.10;83.80;;;;;;3058913;19;19915;-68
2022/09/04 01:39:02;;;;;;;;;;;16.20;83.80;;;;;;3060032;19;19928;-69
2022/09/04 01:40:09;;;;;;;;;;;16.20;83.90;;;;;;3060216;19;19921;-68
2022/09/04 01:41:16;;;;;;;;;;;16.20;84.10;;;;;;3060085;19;20332;-69
2022/09/04 01:42:24;;;;;;;;;;;17.40;85.00;;;;;;3060226;19;20244;-68
2022/09/04 01:43:28;;;;;;;;;;;16.40;84.50;;;;;;3059939;19;19919;-68
2022/09/04 01:44:30;;;;;;;;;;;16.10;84.20;;;;;;3060035;19;19970;-69
2022/09/04 01:45:39;;;;;;;;;;;16.10;84.50;;;;;;3059775;19;19970;-68
2022/09/04 01:46:53;;;;;;;;;;;16.00;84.70;;;;;;3059723;19;19914;-68
2022/09/04 01:48:02;;;;;;;;;;;15.90;84.80;;;;;;3059810;19;19919;-68
2022/09/04 01:49:07;;;;;;;;;;;16.10;85.10;;;;;;3060068;19;19977;-68
2022/09/04 01:50:12;;;;;;;;;;;16.00;85.10;;;;;;3059654;19;19919;-68
2022/09/04 01:51:19;;;;;;;;;;;16.00;85.40;;;;;;3060079;19;19918;-68
2022/09/04 01:52:35;;;;;;;;;;;16.00;85.40;;;;;;3059721;19;19951;-69
2022/09/04 01:53:38;;;;;;;;;;;16.00;84.30;;;;;;3059775;19;19919;-68
2022/09/04 01:54:47;;;;;;;;;;;16.00;85.60;;;;;;3059931;19;20357;-68
2022/09/04 01:55:53;;;;;;;;;;;16.00;85.80;;;;;;3059627;19;19914;-68
2022/09/04 01:57:02;;;;;;;;;;;15.90;86.10;;;;;;3058854;19;19918;-68
2022/09/04 01:58:13;;;;;;;;;;;16.00;86.20;;;;;;3059031;19;20332;-68
2022/09/04 01:59:20;;;;;;;;;;;15.80;85.00;;;;;;3059836;19;19918;-68
2022/09/04 02:00:22;;;;;;;;;;;15.90;86.50;;;;;;3059498;19;19914;-69
2022/09/04 02:01:29;;;;;;;;;;;15.80;86.60;;;;;;3059927;19;19919;-68
2022/09/04 02:02:33;;;;;;;;;;;15.90;86.90;;;;;;3059581;19;19918;-68
2022/09/04 02:03:44;;;;;;;;;;;15.80;86.70;;;;;;3061210;19;19945;-68
2022/09/04 02:04:51;;;;;;;;;;;15.70;86.90;;;;;;3059505;19;19923;-68
2022/09/04 02:06:02;;;;;;;;;;;15.80;87.10;;;;;;3059873;19;20351;-68
2022/09/04 02:07:08;;;;;;;;;;;15.70;87.30;;;;;;3059844;19;19918;-68
2022/09/04 02:08:20;;;;;;;;;;;15.70;87.50;;;;;;3059547;19;19918;-68
2022/09/04 02:09:28;;;;;;;;;;;15.90;87.90;;;;;;3059671;19;19919;-68
2022/09/04 02:10:36;;;;;;;;;;;15.70;88.20;;;;;;3059380;19;19926;-68
2022/09/04 02:11:39;;;;;;;;;;;15.80;88.50;;;;;;3059586;19;19918;-68
2022/09/04 02:12:49;;;;;;;;;;;15.60;88.30;;;;;;3059480;19;20288;-68
2022/09/04 02:14:03;;;;;;;;;;;15.60;88.40;;;;;;3059666;19;19974;-68
2022/09/04 02:15:11;;;;;;;;;;;15.50;88.60;;;;;;3059405;19;19926;-69
2022/09/04 02:16:15;;;;;;;;;;;15.70;89.30;;;;;;3059192;19;19985;-68
2022/09/04 02:17:23;;;;;;;;;;;15.60;89.20;;;;;;3058927;19;19914;-68
2022/09/04 02:18:31;;;;;;;;;;;15.70;89.60;;;;;;3059381;19;19927;-68
2022/09/04 02:19:38;;;;;;;;;;;15.60;89.90;;;;;;3059431;19;19935;-69
2022/09/04 02:20:45;;;;;;;;;;;15.60;89.90;;;;;;3059227;19;19919;-68
2022/09/04 02:21:52;;;;;;;;;;;15.50;90.00;;;;;;3059392;19;19918;-68
2022/09/04 02:22:57;;;;;;;;;;;15.50;90.20;;;;;;3059387;19;19974;-68
2022/09/04 02:24:06;;;;;;;;;;;15.40;90.20;;;;;;3059462;19;19918;-68
2022/09/04 02:25:12;;;;;;;;;;;15.50;90.40;;;;;;3059456;19;19938;-68
2022/09/04 02:26:18;;;;;;;;;;;15.50;90.50;;;;;;3059693;19;19936;-68
2022/09/04 02:27:22;;;;;;;;;;;15.40;90.50;;;;;;3059152;19;19927;-69
2022/09/04 02:28:32;;;;;;;;;;;15.50;90.70;;;;;;3059706;19;19922;-68
2022/09/04 02:29:39;;;;;;;;;;;15.40;90.80;;;;;;3059334;19;19929;-68
2022/09/04 02:30:45;;;;;;;;;;;15.40;91.00;;;;;;3059539;19;19946;-68
2022/09/04 02:31:51;;;;;;;;;;;15.60;91.00;;;;;;3059241;19;19915;-69
2022/09/04 02:32:57;;;;;;;;;;;15.30;91.00;;;;;;3059409;19;20336;-68
2022/09/04 02:34:03;;;;;;;;;;;15.50;91.00;;;;;;3059299;19;19914;-68
2022/09/04 02:35:11;;;;;;;;;;;15.40;91.00;;;;;;3059313;19;19918;-68
2022/09/04 02:36:13;;;;;;;;;;;15.40;91.10;;;;;;3059225;19;19914;-68
2022/09/04 02:37:19;;;;;;;;;;;15.50;91.30;;;;;;3058914;19;19940;-68
2022/09/04 02:38:24;;;;;;;;;;;15.40;91.30;;;;;;3058626;19;19922;-68
2022/09/04 02:39:36;;;;;;;;;;;15.30;91.30;;;;;;3059423;19;19966;-68
2022/09/04 02:40:41;;;;;;;;;;;15.40;91.30;;;;;;3059407;19;19919;-69
2022/09/04 02:41:49;;;;;;;;;;;15.40;91.70;;;;;;3059226;19;19925;-68
2022/09/04 02:42:55;;;;;;;;;;;15.50;91.70;;;;;;3059269;19;19915;-68
2022/09/04 02:44:05;;;;;;;;;;;15.50;91.80;;;;;;3059097;19;19919;-68
2022/09/04 02:45:16;;;;;;;;;;;15.40;91.70;;;;;;3059418;19;19943;-69
2022/09/04 02:46:26;;;;;;;;;;;15.40;91.40;;;;;;3058829;19;19943;-69
2022/09/04 02:47:30;;;;;;;;;;;15.40;92.00;;;;;;3059225;19;19929;-68
2022/09/04 02:48:41;;;;;;;;;;;15.30;92.00;;;;;;3058973;19;19931;-68
2022/09/04 02:49:48;;;;;;;;;;;15.30;92.10;;;;;;3059246;19;19918;-68
2022/09/04 02:51:01;;;;;;;;;;;15.40;92.20;;;;;;3059053;19;19925;-68
2022/09/04 02:52:17;;;;;;;;;;;15.30;92.40;;;;;;3059242;19;19919;-68
2022/09/04 02:53:27;;;;;;;;;;;15.20;92.70;;;;;;3058302;19;19923;-68
2022/09/04 02:54:37;;;;;;;;;;;15.10;92.60;;;;;;3058398;19;19966;-68
2022/09/04 02:55:50;;;;;;;;;;;15.20;92.60;;;;;;3059092;19;19915;-68
2022/09/04 02:56:57;;;;;;;;;;;15.20;92.30;;;;;;3059111;19;19910;-68
2022/09/04 02:58:06;;;;;;;;;;;15.50;92.80;;;;;;3058155;19;20356;-68
2022/09/04 02:59:16;;;;;;;;;;;15.20;92.80;;;;;;3058148;19;19919;-68
2022/09/04 03:00:24;;;;;;;;;;;15.20;92.90;;;;;;3058178;19;19918;-68
2022/09/04 03:01:27;;;;;;;;;;;15.00;92.90;;;;;;3059086;19;19925;-68
2022/09/04 03:02:33;;;;;;;;;;;15.20;93.20;;;;;;3059572;19;19918;-69
2022/09/04 03:03:39;;;;;;;;;;;15.20;93.20;;;;;;3058900;19;20337;-68
2022/09/04 03:04:48;;;;;;;;;;;15.30;93.20;;;;;;3058761;19;19978;-68
2022/09/04 03:05:52;;;;;;;;;;;15.00;93.30;;;;;;3058894;19;19915;-69
2022/09/04 03:06:58;;;;;;;;;;;15.00;93.40;;;;;;3058826;19;19990;-69
2022/09/04 03:08:03;;;;;;;;;;;14.00;93.20;;;;;;3059233;19;19915;-68
2022/09/04 03:09:10;;;;;;;;;;;15.00;93.50;;;;;;3058617;19;19915;-68
2022/09/04 03:10:12;;;;;;;;;;;15.00;93.50;;;;;;3059076;19;19922;-68
2022/09/04 03:11:18;;;;;;;;;;;14.90;93.70;;;;;;3058620;19;19922;-68
2022/09/04 03:12:28;;;;;;;;;;;15.00;93.90;;;;;;3058952;19;19922;-69
2022/09/04 03:13:33;;;;;;;;;;;14.90;93.40;;;;;;3058631;19;19923;-68
2022/09/04 03:14:36;;;;;;;;;;;14.90;93.90;;;;;;3058690;19;19925;-68
2022/09/04 03:15:45;;;;;;;;;;;15.00;94.10;;;;;;3058699;19;19919;-68
2022/09/04 03:16:49;;;;;;;;;;;14.90;94.00;;;;;;3058422;19;19914;-68
2022/09/04 03:17:57;;;;;;;;;;;14.80;94.30;;;;;;3058179;19;19910;-68
2022/09/04 03:19:03;;;;;;;;;;;14.80;94.30;;;;;;3058624;19;19982;-68
2022/09/04 03:20:10;;;;;;;;;;;14.90;94.40;;;;;;3058714;19;19919;-68
2022/09/04 03:21:18;;;;;;;;;;;14.90;94.50;;;;;;3058516;19;19927;-68
2022/09/04 03:22:23;;;;;;;;;;;14.90;94.70;;;;;;3058841;19;19919;-68
2022/09/04 03:23:31;;;;;;;;;;;14.90;94.70;;;;;;3058583;19;19922;-68
2022/09/04 03:24:33;;;;;;;;;;;15.90;95.00;;;;;;3058832;19;19910;-68
2022/09/04 03:25:48;;;;;;;;;;;14.70;94.80;;;;;;3058443;19;19948;-68
2022/09/04 03:26:54;;;;;;;;;;;14.90;94.40;;;;;;3058793;19;19936;-68
2022/09/04 03:27:55;;;;;;;;;;;14.90;95.20;;;;;;3058737;19;19915;-68
2022/09/04 03:29:09;;;;;;;;;;;14.80;95.30;;;;;;3058945;19;19918;-68
2022/09/04 03:30:11;;;;;;;;;;;14.70;94.60;;;;;;3058504;19;19919;-68
2022/09/04 03:31:25;;;;;;;;;;;14.80;95.20;;;;;;3058474;19;20337;-68
2022/09/04 03:32:28;;;;;;;;;;;14.70;95.30;;;;;;3058880;19;19940;-69
2022/09/04 03:33:34;;;;;;;;;;;14.70;95.30;;;;;;3058478;19;19965;-68
2022/09/04 03:34:41;;;;;;;;;;;14.70;95.40;;;;;;3058695;19;19919;-68
2022/09/04 03:35:48;;;;;;;;;;;14.70;95.40;;;;;;3058405;19;19966;-68
2022/09/04 03:36:57;;;;;;;;;;;14.80;95.60;;;;;;3058648;19;20253;-68
2022/09/04 03:38:12;;;;;;;;;;;14.60;95.60;;;;;;3057558;19;19911;-69
2022/09/04 03:39:19;;;;;;;;;;;14.80;95.70;;;;;;3058585;19;20377;-68
2022/09/04 03:40:28;;;;;;;;;;;14.70;95.80;;;;;;3058323;19;19915;-68
2022/09/04 03:41:37;;;;;;;;;;;14.70;95.90;;;;;;3058671;19;19956;-68
2022/09/04 03:42:43;;;;;;;;;;;14.70;95.90;;;;;;3058330;19;19918;-68
2022/09/04 03:43:56;;;;;;;;;;;14.80;96.10;;;;;;3058424;19;20353;-68
2022/09/04 03:45:01;;;;;;;;;;;14.60;96.10;;;;;;3058726;19;19914;-68
2022/09/04 03:46:11;;;;;;;;;;;14.60;96.20;;;;;;3058185;19;19918;-68
2022/09/04 03:47:18;;;;;;;;;;;14.60;96.10;;;;;;3058826;19;19914;-68
2022/09/04 03:48:30;;;;;;;;;;;14.50;96.20;;;;;;3058422;19;20386;-68
2022/09/04 03:49:43;;;;;;;;;;;14.60;96.30;;;;;;3058816;19;19940;-69
2022/09/04 03:50:50;;;;;;;;;;;14.60;95.90;;;;;;3061592;19;19949;-68
2022/09/04 03:51:57;;;;;;;;;;;14.40;96.40;;;;;;3061790;19;20355;-68
2022/09/04 03:53:04;;;;;;;;;;;14.50;96.40;;;;;;3061367;19;19922;-69
2022/09/04 03:54:11;;;;;;;;;;;14.60;96.70;;;;;;3061574;19;20193;-69
2022/09/04 03:55:20;;;;;;;;;;;14.40;96.50;;;;;;3061373;19;19914;-68
2022/09/04 03:56:31;;;;;;;;;;;14.40;96.40;;;;;;3061476;19;19918;-68
2022/09/04 03:57:44;;;;;;;;;;;14.60;96.10;;;;;;3061126;19;19915;-68
2022/09/04 03:58:48;;;;;;;;;;;14.50;96.20;;;;;;3061089;19;20409;-68
2022/09/04 04:00:04;;;;;;;;;;;14.50;96.70;;;;;;3061622;19;19983;-68
2022/09/04 04:01:12;;;;;;;;;;;14.60;96.30;;;;;;3061140;19;20341;-68
2022/09/04 04:02:24;;;;;;;;;;;14.40;96.90;;;;;;3061477;19;19919;-68
2022/09/04 04:03:35;;;;;;;;;;;14.60;97.00;;;;;;3061431;19;19944;-68
2022/09/04 04:04:59;;;;;;;;;;;14.40;96.50;;;;;;3061644;19;20374;-68
2022/09/04 04:06:05;;;;;;;;;;;14.70;96.70;;;;;;3060418;19;19918;-68
2022/09/04 04:07:13;;;;;;;;;;;14.40;97.20;;;;;;3061162;19;19925;-69
2022/09/04 04:08:27;;;;;;;;;;;14.40;97.20;;;;;;3061410;19;19936;-68
2022/09/04 04:09:37;;;;;;;;;;;14.40;96.70;;;;;;3061123;19;19919;-69
2022/09/04 04:10:44;;;;;;;;;;;14.40;97.40;;;;;;3061283;19;19914;-68
2022/09/04 04:11:56;;;;;;;;;;;14.50;97.40;;;;;;3061071;19;20490;-68
2022/09/04 04:13:03;;;;;;;;;;;14.50;97.50;;;;;;3061146;19;19919;-69
2022/09/04 04:14:29;;;;;;;;;;;14.40;97.50;;;;;;3061175;19;19921;-68
2022/09/04 04:15:36;;;;;;;;;;;14.40;97.10;;;;;;3061095;19;19926;-68
2022/09/04 04:16:45;;;;;;;;;;;14.40;97.50;;;;;;3060789;19;19915;-68
2022/09/04 04:18:10;;;;;;;;;;;14.50;97.60;;;;;;3060456;19;19941;-68
2022/09/04 04:19:30;;;;;;;;;;;14.30;97.20;;;;;;3059356;19;19921;-69
2022/09/04 04:20:36;;;;;;;;;;;14.40;97.30;;;;;;3061369;19;19914;-68
2022/09/04 04:21:53;;;;;;;;;;;14.40;97.80;;;;;;3061005;19;19914;-68
2022/09/04 04:23:04;;;;;;;;;;;14.40;98.00;;;;;;3061122;19;19918;-68
2022/09/04 04:24:28;;;;;;;;;;;14.30;98.10;;;;;;3060852;19;19915;-68
2022/09/04 04:25:37;;;;;;;;;;;14.30;98.10;;;;;;3061044;19;20304;-68
2022/09/04 04:26:48;;;;;;;;;;;14.40;97.40;;;;;;3061072;19;19918;-69
2022/09/04 04:28:00;;;;;;;;;;;14.20;98.10;;;;;;3060788;19;19922;-68
2022/09/04 04:29:15;;;;;;;;;;;14.10;97.90;;;;;;3061019;19;19949;-69
2022/09/04 04:30:16;;;;;;;;;;;14.20;98.10;;;;;;3060863;19;19931;-68
2022/09/04 04:31:24;;;;;;;;;;;14.20;98.10;;;;;;3061044;19;20260;-68
2022/09/04 04:32:32;;;;;;;;;;;14.20;98.20;;;;;;3060796;19;20342;-68
2022/09/04 04:33:42;;;;;;;;;;;14.30;97.80;;;;;;3061591;19;19918;-68
2022/09/04 04:34:52;;;;;;;;;;;14.10;98.30;;;;;;3060845;19;19911;-68
2022/09/04 04:36:01;;;;;;;;;;;14.10;98.20;;;;;;3060679;19;19915;-68
2022/09/04 04:37:10;;;;;;;;;;;14.20;98.30;;;;;;3061033;19;19918;-68
2022/09/04 04:38:21;;;;;;;;;;;14.20;98.50;;;;;;3058766;19;19918;-68
2022/09/04 04:39:26;;;;;;;;;;;14.00;97.80;;;;;;3060554;19;20340;-68
2022/09/04 04:40:46;;;;;;;;;;;14.10;98.30;;;;;;3060579;19;20366;-68
2022/09/04 04:42:04;;;;;;;;;;;14.20;98.30;;;;;;3061009;19;19925;-68
2022/09/04 04:43:12;;;;;;;;;;;14.10;98.50;;;;;;3060722;19;19952;-69
2022/09/04 04:44:15;;;;;;;;;;;14.20;98.60;;;;;;3060836;19;19911;-68
2022/09/04 04:46:46;;;;;;;;;;;14.10;98.60;;;;;;3060437;19;19919;-68
2022/09/04 04:48:16;;;;;;;;;;;14.10;98.60;;;;;;3060997;19;19919;-68
2022/09/04 04:49:32;;;;;;;;;;;14.10;98.00;;;;;;3058909;19;20360;-69
2022/09/04 04:50:42;;;;;;;;;;;14.10;98.20;;;;;;3060377;19;19949;-69
2022/09/04 04:52:00;;;;;;;;;;;13.90;98.60;;;;;;3060936;19;19931;-69
2022/09/04 04:53:04;;;;;;;;;;;14.20;98.40;;;;;;3060976;19;19919;-68
2022/09/04 04:54:18;;;;;;;;;;;14.00;98.90;;;;;;3061100;19;19947;-69
2022/09/04 04:55:28;;;;;;;;;;;14.20;98.40;;;;;;3060624;19;19918;-69
2022/09/04 04:56:35;;;;;;;;;;;14.50;99.00;;;;;;3060849;19;19915;-69
2022/09/04 04:57:52;;;;;;;;;;;14.10;98.90;;;;;;3060565;19;19906;-69
2022/09/04 04:59:03;;;;;;;;;;;14.10;98.40;;;;;;3060632;19;19918;-69
2022/09/04 05:00:07;;;;;;;;;;;14.00;98.80;;;;;;3060833;19;19919;-69
2022/09/04 05:01:16;;;;;;;;;;;14.10;98.90;;;;;;3061540;19;19915;-69
2022/09/04 05:02:21;;;;;;;;;;;14.00;98.90;;;;;;3060754;19;19918;-69
2022/09/04 05:03:31;;;;;;;;;;;14.00;99.10;;;;;;3060462;19;20290;-69
2022/09/04 05:04:39;;;;;;;;;;;14.00;98.90;;;;;;3060524;19;19915;-69
2022/09/04 05:05:54;;;;;;;;;;;14.00;99.00;;;;;;3060347;19;19923;-69
2022/09/04 05:07:01;;;;;;;;;;;14.00;98.60;;;;;;3060580;19;20285;-69
2022/09/04 05:08:05;;;;;;;;;;;14.00;99.10;;;;;;3060350;19;19923;-69
2022/09/04 05:09:14;;;;;;;;;;;14.20;99.00;;;;;;3060565;19;19918;-69
2022/09/04 05:10:17;;;;;;;;;;;14.20;99.00;;;;;;3060358;19;20364;-69
2022/09/04 05:11:24;;;;;;;;;;;14.10;99.10;;;;;;3060343;19;19926;-69
2022/09/04 05:12:28;;;;;;;;;;;14.70;99.20;;;;;;3060351;19;19919;-69
2022/09/04 05:13:35;;;;;;;;;;;14.20;99.30;;;;;;3060374;19;19922;-69
2022/09/04 05:14:46;;;;;;;;;;;14.20;99.20;;;;;;3060459;19;19915;-69
2022/09/04 05:15:54;;;;;;;;;;;14.20;98.80;;;;;;3060119;19;20328;-69
2022/09/04 05:16:58;;;;;;;;;;;14.20;99.30;;;;;;3060121;19;19918;-68
2022/09/04 05:18:06;;;;;;;;;;;14.10;99.40;;;;;;3059051;19;20280;-69
2022/09/04 05:19:11;;;;;;;;;;;14.10;99.20;;;;;;3059750;19;19985;-69
2022/09/04 05:20:30;;;;;;;;;;;14.60;99.30;;;;;;3060068;19;19918;-69
2022/09/04 05:21:37;;;;;;;;;;;14.30;98.70;;;;;;3060609;19;19918;-69
2022/09/04 05:22:43;;;;;;;;;;;14.40;99.20;;;;;;3060186;19;19919;-69
2022/09/04 05:23:49;;;;;;;;;;;14.30;99.20;;;;;;3060251;19;19930;-69
2022/09/04 05:24:59;;;;;;;;;;;14.40;99.30;;;;;;3060441;19;19915;-69
2022/09/04 05:26:05;;;;;;;;;;;14.30;99.20;;;;;;3060173;19;20348;-69
2022/09/04 05:27:12;;;;;;;;;;;14.50;99.30;;;;;;3060393;19;19915;-69
2022/09/04 05:28:20;;;;;;;;;;;14.40;99.20;;;;;;3059985;19;19914;-69
2022/09/04 05:29:27;;;;;;;;;;;14.50;99.20;;;;;;3060463;19;19948;-69
2022/09/04 05:30:32;;;;;;;;;;;14.40;99.10;;;;;;3060131;19;19923;-68
2022/09/04 05:31:42;;;;;;;;;;;14.50;99.10;;;;;;3060340;19;19944;-69
2022/09/04 05:32:49;;;;;;;;;;;14.40;98.80;;;;;;3060090;19;20325;-69
2022/09/04 05:33:57;;;;;;;;;;;14.50;99.20;;;;;;3060183;19;19944;-69
2022/09/04 05:35:05;;;;;;;;;;;14.30;99.00;;;;;;3059932;19;19927;-68
2022/09/04 05:36:11;;;;;;;;;;;14.50;99.40;;;;;;3059914;19;20254;-69
2022/09/04 05:37:16;;;;;;;;;;;14.50;99.20;;;;;;3059875;19;19918;-69
2022/09/04 05:38:22;;;;;;;;;;;14.20;99.20;;;;;;3059937;19;19922;-69
2022/09/04 05:39:26;;;;;;;;;;;14.40;99.10;;;;;;3060002;19;19919;-69
2022/09/04 05:40:32;;;;;;;;;;;14.50;99.20;;;;;;3060189;19;19990;-68
2022/09/04 05:41:37;;;;;;;;;;;14.30;99.20;;;;;;3059913;19;19922;-69
2022/09/04 05:42:48;;;;;;;;;;;14.50;99.20;;;;;;3059833;19;19921;-69
2022/09/04 05:43:57;;;;;;;;;;;14.50;98.80;;;;;;3059931;19;19914;-69
2022/09/04 05:45:06;;;;;;;;;;;14.60;99.30;;;;;;3059789;19;19936;-69
2022/09/04 05:46:11;;;;;;;;;;;14.60;99.40;;;;;;3059830;19;19926;-69
2022/09/04 05:47:20;;;;;;;;;;;14.50;99.40;;;;;;3059743;19;19915;-69
2022/09/04 05:48:24;;;;;;;;;;;14.50;99.50;;;;;;3060012;19;20273;-69
2022/09/04 05:49:36;;;;;;;;;;;15.40;99.60;;;;;;3059723;19;19917;-69
2022/09/04 05:50:49;;;;;;;;;;;14.60;99.60;;;;;;3060128;19;20000;-69
2022/09/04 05:52:08;;;;;;;;;;;14.50;99.10;;;;;;3059662;19;19985;-69
2022/09/04 05:53:19;;;;;;;;;;;14.50;99.00;;;;;;3059682;19;19922;-69
2022/09/04 05:54:53;;;;;;;;;;;14.60;99.50;;;;;;3059905;19;20257;-69
2022/09/04 05:56:09;;;;;;;;;;;14.60;99.10;;;;;;3058058;19;20418;-69
2022/09/04 05:57:23;;;;;;;;;;;14.50;99.50;;;;;;3058240;19;19918;-69
2022/09/04 05:58:30;;;;;;;;;;;14.50;99.00;;;;;;3058909;19;19911;-69
2022/09/04 05:59:46;;;;;;;;;;;14.50;99.50;;;;;;3059880;19;19968;-69
2022/09/04 06:00:57;;;;;;;;;;;14.60;99.60;;;;;;3059935;19;20248;-69
2022/09/04 06:02:09;;;;;;;;;;;14.60;99.60;;;;;;3059589;19;20032;-69
2022/09/04 06:03:21;;;;;;;;;;;14.60;99.60;;;;;;3059906;19;19932;-69
2022/09/04 06:04:41;;;;;;;;;;;14.70;99.60;;;;;;3059479;19;20261;-69
2022/09/04 06:05:45;;;;;;;;;;;14.50;99.60;;;;;;3059518;19;19979;-69
2022/09/04 06:06:55;;;;;;;;;;;14.60;99.70;;;;;;3058835;19;19915;-69
2022/09/04 06:08:00;;;;;;;;;;;14.60;99.70;;;;;;3058804;19;20310;-69
2022/09/04 06:09:14;;;;;;;;;;;14.50;99.70;;;;;;3059639;19;19934;-69
2022/09/04 06:10:18;;;;;;;;;;;14.50;99.80;;;;;;3059441;19;19926;-69
2022/09/04 06:11:31;;;;;;;;;;;15.10;99.90;;;;;;3060022;19;19914;-69
2022/09/04 06:12:51;;;;;;;;;;;14.60;99.80;;;;;;3057153;19;19918;-69
2022/09/04 06:13:57;;;;;;;;;;;14.60;99.50;;;;;;3058807;19;19936;-69
2022/09/04 06:15:07;;;;;;;;;;;14.80;99.90;;;;;;3059685;19;19952;-69
2022/09/04 06:16:16;;;;;;;;;;;14.70;99.90;;;;;;3058937;19;19926;-69
2022/09/04 06:17:27;;;;;;;;;;;14.80;99.80;;;;;;3059101;19;19915;-69
2022/09/04 06:18:43;;;;;;;;;;;14.70;99.90;;;;;;3058426;19;20292;-69
2022/09/04 06:19:54;;;;;;;;;;;14.70;99.90;;;;;;3058565;19;19914;-69
2022/09/04 06:21:14;;;;;;;;;;;14.70;99.90;;;;;;3059386;19;20344;-69
2022/09/04 06:22:28;;;;;;;;;;;14.80;99.50;;;;;;3059310;19;19930;-69
2022/09/04 06:23:43;;;;;;;;;;;14.70;99.50;;;;;;3059469;19;19923;-69
2022/09/04 06:24:55;;;;;;;;;;;14.90;99.70;;;;;;3059418;19;19917;-69
2022/09/04 06:26:20;;;;;;;;;;;14.90;99.90;;;;;;3059591;19;19915;-69
2022/09/04 06:27:32;;;;;;;;;;;15.00;99.90;;;;;;3058932;19;19911;-69
2022/09/04 06:28:45;;;;;;;;;;;14.90;99.50;;;;;;3059211;19;20454;-69
2022/09/04 06:30:03;;;;;;;;;;;14.90;99.50;;;;;;3059433;19;19930;-69
2022/09/04 06:31:07;;;;;;;;;;;14.90;99.90;;;;;;3059209;19;19922;-69
2022/09/04 06:32:29;;;;;;;;;;;15.10;99.90;;;;;;3059479;19;19915;-69
2022/09/04 06:33:38;;;;;;;;;;;15.00;99.90;;;;;;3059169;19;19915;-69
2022/09/04 06:34:50;;;;;;;;;;;15.00;99.90;;;;;;3059357;19;19922;-69
2022/09/04 06:36:01;;;;;;;;;;;15.00;99.80;;;;;;3059196;19;20333;-69
2022/09/04 06:37:12;;;;;;;;;;;16.30;99.90;;;;;;3059316;19;19919;-69
2022/09/04 06:38:21;;;;;;;;;;;15.20;99.30;;;;;;3059050;19;19919;-69
2022/09/04 06:39:34;;;;;;;;;;;15.20;99.90;;;;;;3058318;19;19978;-69
2022/09/04 06:40:47;;;;;;;;;;;15.00;99.90;;;;;;3059349;19;19919;-69
2022/09/04 06:42:00;;;;;;;;;;;15.00;99.50;;;;;;3059077;19;19919;-69
2022/09/04 06:43:06;;;;;;;;;;;15.00;99.90;;;;;;3059187;19;19921;-69
2022/09/04 06:44:17;;;;;;;;;;;15.10;99.80;;;;;;3059198;19;19915;-69